Time;durP1;ratioP1;P1;durP2;ratioP2;P2;SDS_P1;SDS_P2;PMS_P1;PMS_P2;Temp;Humidity;BMP_temperature;BMP_pressure;BME280_temperature;BME280_humidity;BME280_pressure;Samples;Min_cycle;Max_cycle;Signal;HPM_P1;HPM_P2
2021/04/15 00:00:25;;;;;;;13.20;11.40;;;0.50;1.00;;;;;;5075869;28;20488;-47
2021/04/15 00:02:54;;;;;;;12.63;11.13;;;0.50;1.00;;;;;;5066848;28;23265;-45
2021/04/15 00:05:28;;;;;;;14.77;12.20;;;0.40;1.00;;;;;;5071772;28;20921;-42
2021/04/15 00:07:58;;;;;;;13.00;11.70;;;0.40;1.00;;;;;;5059071;28;20527;-43
2021/04/15 00:10:28;;;;;;;11.40;9.90;;;0.40;84.20;;;;;;5056970;28;20931;-41
2021/04/15 00:12:54;;;;;;;14.97;11.40;;;0.30;1.00;;;;;;5063505;28;20432;-43
2021/04/15 00:15:21;;;;;;;15.43;11.10;;;0.30;99.90;;;;;;5071269;28;20438;-44
2021/04/15 00:17:49;;;;;;;10.80;9.70;;;0.30;1.00;;;;;;5077356;28;20461;-45
2021/04/15 00:20:20;;;;;;;11.47;10.27;;;0.20;1.00;;;;;;5072470;28;20455;-45
2021/04/15 00:22:47;;;;;;;14.20;10.60;;;0.20;1.00;;;;;;5077165;28;20727;-41
2021/04/15 00:25:15;;;;;;;15.93;11.77;;;0.20;99.90;;;;;;5066291;28;20520;-42
2021/04/15 00:27:41;;;;;;;11.60;10.40;;;0.20;1.00;;;;;;5057029;28;20462;-47
2021/04/15 00:30:11;;;;;;;12.37;10.80;;;0.30;58.70;;;;;;5064263;28;20481;-43
2021/04/15 00:32:41;;;;;;;14.20;11.23;;;0.30;1.00;;;;;;5076864;28;20465;-42
2021/04/15 00:35:09;;;;;;;13.07;10.03;;;0.30;1.00;;;;;;5064202;28;20886;-43
2021/04/15 00:37:36;;;;;;;11.73;10.23;;;0.20;1.00;;;;;;5056870;28;20469;-44
2021/04/15 00:40:03;;;;;;;12.70;10.83;;;0.20;1.00;;;;;;5070901;28;20432;-42
2021/04/15 00:42:31;;;;;;;13.60;10.27;;;0.20;1.00;;;;;;5077833;28;20461;-41
2021/04/15 00:45:06;;;;;;;12.70;9.87;;;0.20;1.00;;;;;;5076367;28;20465;-41
2021/04/15 00:47:33;;;;;;;14.93;10.67;;;0.20;1.00;;;;;;5075667;28;20756;-43
2021/04/15 00:50:04;;;;;;;11.90;10.43;;;0.20;28.30;;;;;;5080193;28;20775;-46
2021/04/15 00:52:35;;;;;;;11.97;10.47;;;0.20;1.00;;;;;;5074928;28;20469;-47
2021/04/15 00:55:07;;;;;;;12.97;10.97;;;0.20;1.00;;;;;;5079841;28;20935;-44
2021/04/15 00:57:38;;;;;;;14.80;11.40;;;0.20;1.00;;;;;;5074823;28;20461;-48
2021/04/15 01:00:08;;;;;;;11.27;10.17;;;0.20;99.90;;;;;;5080269;28;20481;-47
2021/04/15 01:02:35;;;;;;;17.87;12.20;;;0.20;1.00;;;;;;5075154;28;20440;-43
2021/04/15 01:05:10;;;;;;;15.50;11.53;;;0.20;1.00;;;;;;5075391;28;20478;-43
2021/04/15 01:07:40;;;;;;;13.43;12.00;;;0.20;1.00;;;;;;5070591;28;20483;-44
2021/04/15 01:10:10;;;;;;;12.70;11.17;;;0.30;1.00;;;;;;5071961;28;20505;-43
2021/04/15 01:12:54;;;;;;;12.20;10.77;;;0.20;99.90;;;;;;5079029;28;20528;-42
2021/04/15 01:16:14;;;;;;;12.40;10.90;;;0.10;99.90;;;;;;5072128;28;20453;-43
2021/04/15 01:18:48;;;;;;;12.20;10.90;;;0.00;99.90;;;;;;5084183;28;20935;-44
2021/04/15 01:21:43;;;;;;;11.83;10.60;;;-0.20;99.90;;;;;;5075233;28;20901;-43
2021/04/15 01:24:14;;;;;;;13.60;11.17;;;-0.30;1.00;;;;;;5074631;28;20795;-44
2021/04/15 01:27:09;;;;;;;14.03;10.57;;;-0.30;1.00;;;;;;5076426;28;20461;-43
2021/04/15 01:29:45;;;;;;;15.83;10.73;;;-0.40;1.00;;;;;;5068929;28;20462;-47
2021/04/15 01:32:19;;;;;;;15.10;10.40;;;-0.40;1.00;;;;;;5059105;28;20773;-42
2021/04/15 01:34:52;;;;;;;20.97;12.40;;;-0.40;1.00;;;;;;5063071;28;20895;-42
2021/04/15 01:37:28;;;;;;;11.53;10.23;;;-0.40;99.90;;;;;;5076026;28;20888;-43
2021/04/15 01:40:00;;;;;;;12.97;11.50;;;-0.40;99.90;;;;;;5088325;28;20467;-42
2021/04/15 01:42:29;;;;;;;13.10;10.90;;;-0.40;1.00;;;;;;5075110;28;20459;-42
2021/04/15 01:44:59;;;;;;;14.60;11.80;;;-0.50;1.00;;;;;;5059351;28;20783;-42
2021/04/15 01:47:31;;;;;;;12.40;10.60;;;-0.60;99.90;;;;;;5062236;28;20937;-42
2021/04/15 01:50:04;;;;;;;12.53;11.23;;;-0.60;99.90;;;;;;5060088;28;20485;-42
2021/04/15 01:52:36;;;;;;;11.50;10.30;;;-0.70;1.00;;;;;;5081640;28;20469;-43
2021/04/15 01:55:09;;;;;;;12.80;10.70;;;-0.70;1.00;;;;;;5079050;28;20555;-43
2021/04/15 01:57:42;;;;;;;13.00;11.03;;;-0.70;99.90;;;;;;5064287;28;20462;-44
2021/04/15 02:00:18;;;;;;;15.30;12.03;;;-0.60;1.00;;;;;;5058911;28;20490;-42
2021/04/15 02:02:53;;;;;;;15.53;11.83;;;-0.60;29.50;;;;;;5062827;28;20478;-45
2021/04/15 02:05:24;;;;;;;15.40;11.70;;;-0.70;99.90;;;;;;5073985;28;20461;-43
2021/04/15 02:07:55;;;;;;;16.73;11.23;;;-0.70;99.90;;;;;;5087324;28;20449;-45
2021/04/15 02:10:27;;;;;;;15.47;11.43;;;-0.70;99.90;;;;;;5085134;28;20528;-43
2021/04/15 02:12:57;;;;;;;17.73;12.63;;;-0.70;99.90;;;;;;5085617;28;20452;-43
2021/04/15 02:15:28;;;;;;;15.90;12.30;;;-0.60;99.90;;;;;;5087568;28;20468;-42
2021/04/15 02:18:00;;;;;;;15.87;11.90;;;-0.60;99.90;;;;;;5088227;28;20543;-44
2021/04/15 02:20:28;;;;;;;14.00;11.17;;;-0.60;99.90;;;;;;5077560;28;20458;-41
2021/04/15 02:23:02;;;;;;;15.73;11.80;;;-0.60;99.90;;;;;;5078580;28;20457;-42
2021/04/15 02:25:42;;;;;;;13.50;12.10;;;-0.60;99.90;;;;;;5075946;28;20489;-43
2021/04/15 02:28:15;;;;;;;14.80;12.60;;;-0.60;99.90;;;;;;5081747;28;20469;-45
2021/04/15 02:30:46;;;;;;;15.07;12.60;;;-0.70;99.90;;;;;;5085560;28;20524;-45
2021/04/15 02:33:19;;;;;;;15.60;12.70;;;-0.70;99.90;;;;;;5083055;28;20448;-43
2021/04/15 02:35:49;;;;;;;16.27;13.60;;;-0.70;99.90;;;;;;5086297;28;20482;-42
2021/04/15 02:38:18;;;;;;;17.93;11.90;;;-0.80;99.90;;;;;;5086243;28;20490;-42
2021/04/15 02:40:49;;;;;;;21.33;13.17;;;-0.80;99.90;;;;;;5088082;28;20505;-41
2021/04/15 02:43:31;;;;;;;14.40;11.93;;;-0.70;99.90;;;;;;5078333;28;20484;-41
2021/04/15 02:46:09;;;;;;;14.80;11.97;;;-0.80;99.90;;;;;;5078074;28;20958;-42
2021/04/15 02:48:41;;;;;;;16.43;11.47;;;-0.90;99.90;;;;;;5062739;28;20533;-43
2021/04/15 02:51:12;;;;;;;16.50;11.67;;;-0.80;99.90;;;;;;5059616;28;20482;-44
2021/04/15 02:53:43;;;;;;;15.53;11.40;;;-0.90;99.90;;;;;;5077830;28;20444;-41
2021/04/15 02:56:14;;;;;;;12.77;11.47;;;-0.90;99.90;;;;;;5079096;28;20456;-42
2021/04/15 02:58:45;;;;;;;14.17;11.87;;;-0.90;99.90;;;;;;5087574;28;20510;-43
2021/04/15 03:01:17;;;;;;;13.27;11.87;;;-0.90;99.90;;;;;;5085850;28;20793;-43
2021/04/15 03:03:49;;;;;;;16.83;13.70;;;-1.00;99.90;;;;;;5078335;28;20476;-42
2021/04/15 03:06:21;;;;;;;16.57;12.63;;;-1.00;99.90;;;;;;5068534;28;20512;-42
2021/04/15 03:08:50;;;;;;;14.83;12.23;;;-1.10;99.90;;;;;;5082394;28;20461;-44
2021/04/15 03:11:20;;;;;;;14.67;11.80;;;-1.10;99.90;;;;;;5070420;28;20482;-42
2021/04/15 03:13:51;;;;;;;21.40;14.90;;;-1.00;99.90;;;;;;5075418;28;20912;-42
2021/04/15 03:16:19;;;;;;;18.20;13.63;;;-1.00;99.90;;;;;;5073905;28;20465;-45
2021/04/15 03:18:50;;;;;;;16.30;13.13;;;-0.90;99.90;;;;;;5073900;28;20473;-42
2021/04/15 03:21:21;;;;;;;19.37;14.73;;;-1.00;99.90;;;;;;5076946;28;20449;-42
2021/04/15 03:23:52;;;;;;;16.93;13.00;;;-1.00;99.90;;;;;;5059972;28;20767;-41
2021/04/15 03:26:37;;;;;;;14.03;12.53;;;-1.00;99.90;;;;;;5058052;28;20516;-42
2021/04/15 03:29:13;;;;;;;19.90;13.57;;;-1.10;99.90;;;;;;5060353;28;20749;-44
2021/04/15 03:31:44;;;;;;;16.50;12.83;;;-1.10;99.90;;;;;;5059879;28;20771;-43
2021/04/15 03:34:18;;;;;;;15.50;13.33;;;-1.20;99.90;;;;;;5057240;28;20469;-43
2021/04/15 03:36:49;;;;;;;15.37;12.37;;;-1.10;99.90;;;;;;5060941;28;20457;-42
2021/04/15 03:39:20;;;;;;;14.90;11.80;;;-1.30;99.90;;;;;;5077554;28;20460;-42
2021/04/15 03:41:55;;;;;;;14.97;12.53;;;-1.30;99.90;;;;;;5073457;28;20457;-48
2021/04/15 03:44:26;;;;;;;22.23;13.97;;;-1.30;99.90;;;;;;5077582;28;20461;-45
2021/04/15 03:46:58;;;;;;;15.43;13.20;;;-1.20;99.90;;;;;;5082879;28;20463;-42
2021/04/15 03:49:31;;;;;;;16.30;13.47;;;-1.20;99.90;;;;;;5076166;28;20484;-44
2021/04/15 03:52:02;;;;;;;14.17;12.17;;;-1.20;99.90;;;;;;5058798;28;20489;-43
2021/04/15 03:54:34;;;;;;;15.30;12.90;;;-1.30;99.90;;;;;;5056980;28;20462;-44
2021/04/15 03:57:04;;;;;;;19.30;14.23;;;-1.20;99.90;;;;;;5056655;28;20462;-42
2021/04/15 03:59:42;;;;;;;15.23;12.63;;;-1.20;99.90;;;;;;5058361;28;20470;-42
2021/04/15 04:02:13;;;;;;;14.27;12.00;;;-1.20;99.90;;;;;;5077048;28;20471;-42
2021/04/15 04:04:44;;;;;;;19.70;14.40;;;-1.30;99.90;;;;;;5068370;28;20495;-42
2021/04/15 04:07:16;;;;;;;20.03;16.47;;;-1.50;99.90;;;;;;5076150;28;20493;-41
2021/04/15 04:09:46;;;;;;;19.60;15.20;;;-1.50;99.90;;;;;;5075950;28;20480;-42
2021/04/15 04:12:18;;;;;;;17.27;14.63;;;-1.50;99.90;;;;;;5077482;28;20786;-43
2021/04/15 04:14:52;;;;;;;20.10;14.00;;;-1.50;99.90;;;;;;5057435;28;20462;-43
2021/04/15 04:17:24;;;;;;;19.63;15.00;;;-1.50;99.90;;;;;;5062959;28;20513;-45
2021/04/15 04:19:56;;;;;;;18.97;13.63;;;-1.50;99.90;;;;;;5078240;28;20465;-42
2021/04/15 04:22:33;;;;;;;19.40;13.93;;;-1.50;99.90;;;;;;5076268;28;20897;-42
2021/04/15 04:25:07;;;;;;;16.80;14.10;;;-1.40;99.90;;;;;;5080997;28;20564;-43
2021/04/15 04:27:38;;;;;;;17.37;13.03;;;-1.50;99.90;;;;;;5076371;28;20880;-42
2021/04/15 04:30:09;;;;;;;15.70;12.93;;;-1.50;99.90;;;;;;5078380;28;20457;-45
2021/04/15 04:32:38;;;;;;;16.87;13.63;;;-1.50;99.90;;;;;;5070794;28;20457;-41
2021/04/15 04:35:08;;;;;;;17.33;12.70;;;-1.50;99.90;;;;;;5080608;28;20464;-42
2021/04/15 04:37:39;;;;;;;15.30;13.00;;;-1.50;99.90;;;;;;5080258;28;20445;-43
2021/04/15 04:40:09;;;;;;;18.53;13.47;;;-1.50;99.90;;;;;;5080079;28;20743;-43
2021/04/15 04:42:42;;;;;;;23.77;14.10;;;-1.50;99.90;;;;;;5080275;28;20461;-41
2021/04/15 04:45:10;;;;;;;15.27;13.27;;;-1.40;99.90;;;;;;5080388;28;20512;-42
2021/04/15 04:47:43;;;;;;;25.20;14.43;;;-1.50;99.90;;;;;;5080432;28;20507;-44
2021/04/15 04:50:20;;;;;;;19.57;13.70;;;-1.50;99.90;;;;;;5060246;28;20508;-42
2021/04/15 04:52:49;;;;;;;19.20;15.30;;;-1.50;99.90;;;;;;5060298;28;20758;-42
2021/04/15 04:55:24;;;;;;;18.83;13.70;;;-1.50;99.90;;;;;;5060226;28;20465;-44
2021/04/15 04:57:51;;;;;;;18.17;13.93;;;-1.40;99.90;;;;;;5060115;28;20969;-42
2021/04/15 05:00:21;;;;;;;15.40;13.80;;;-1.50;99.90;;;;;;5059807;28;20490;-47
2021/04/15 05:02:54;;;;;;;15.50;12.90;;;-1.40;99.90;;;;;;5073959;28;20538;-44
2021/04/15 05:05:24;;;;;;;19.63;13.63;;;-1.50;99.90;;;;;;5074555;28;20477;-40
2021/04/15 05:07:58;;;;;;;16.00;11.70;;;-1.40;99.90;;;;;;5078365;28;20496;-44
2021/04/15 05:10:29;;;;;;;15.33;13.60;;;-1.40;99.90;;;;;;5072397;28;20485;-43
2021/04/15 05:13:17;;;;;;;25.03;14.17;;;-1.40;99.90;;;;;;5074240;28;20466;-45
2021/04/15 05:15:44;;;;;;;17.07;14.53;;;-1.30;99.90;;;;;;5078997;28;20469;-42
2021/04/15 05:18:15;;;;;;;16.63;14.33;;;-1.30;99.90;;;;;;5078993;28;20470;-45
2021/04/15 05:20:42;;;;;;;17.00;13.60;;;-1.30;99.90;;;;;;5072951;28;20469;-41
2021/04/15 05:23:15;;;;;;;19.10;13.97;;;-1.20;99.90;;;;;;5072356;28;20472;-41
2021/04/15 05:25:52;;;;;;;24.57;14.10;;;-1.20;99.90;;;;;;5078018;28;20518;-41
2021/04/15 05:28:23;;;;;;;17.63;15.73;;;-1.10;99.90;;;;;;5077460;28;20472;-42
2021/04/15 05:30:52;;;;;;;21.30;13.77;;;-1.00;99.90;;;;;;5080347;28;20504;-44
2021/04/15 05:33:22;;;;;;;18.67;14.43;;;-1.00;99.90;;;;;;5081695;28;20472;-43
2021/04/15 05:35:58;;;;;;;23.03;14.97;;;-0.90;99.90;;;;;;5071654;28;20465;-42
2021/04/15 05:38:26;;;;;;;19.00;15.50;;;-0.80;99.90;;;;;;5074749;28;20472;-42
2021/04/15 05:40:56;;;;;;;16.77;14.27;;;-0.70;99.90;;;;;;5069986;28;20465;-43
2021/04/15 05:43:34;;;;;;;32.03;14.93;;;-0.50;99.90;;;;;;5071549;28;20470;-45
2021/04/15 05:46:07;;;;;;;27.73;16.23;;;-0.50;99.90;;;;;;5059099;28;20501;-42
2021/04/15 05:48:37;;;;;;;26.80;16.43;;;-0.40;99.90;;;;;;5070844;28;20470;-42
2021/04/15 05:51:11;;;;;;;22.07;14.43;;;-0.30;99.90;;;;;;5064487;28;20512;-42
2021/04/15 05:53:41;;;;;;;22.00;15.57;;;-0.20;99.90;;;;;;5070200;28;20469;-42
2021/04/15 05:56:11;;;;;;;26.03;15.90;;;0.00;99.90;;;;;;5068233;28;20492;-41
2021/04/15 05:58:46;;;;;;;28.40;16.93;;;0.20;99.90;;;;;;5072268;28;20477;-42
2021/04/15 06:01:18;;;;;;;23.07;17.40;;;0.30;99.90;;;;;;5059556;28;20497;-43
2021/04/15 06:03:57;;;;;;;27.20;17.63;;;0.50;99.90;;;;;;5069596;28;21657;-42
2021/04/15 06:06:28;;;;;;;20.53;16.50;;;0.60;99.90;;;;;;5067737;28;20472;-42
2021/04/15 06:08:55;;;;;;;25.00;17.00;;;0.80;99.90;;;;;;5065183;28;20460;-44
2021/04/15 06:11:50;;;;;;;24.17;18.10;;;1.10;99.90;;;;;;5061429;28;20500;-43
2021/04/15 06:14:24;;;;;;;27.37;17.60;;;1.30;99.90;;;;;;5067079;28;20458;-46
2021/04/15 06:17:20;;;;;;;24.90;18.90;;;1.50;99.90;;;;;;5068323;28;20466;-43
2021/04/15 06:19:53;;;;;;;25.33;17.47;;;1.70;99.90;;;;;;5060714;28;20753;-44
2021/04/15 06:22:22;;;;;;;21.97;16.77;;;2.00;99.90;;;;;;5071796;28;20756;-44
2021/04/15 06:24:55;;;;;;;20.80;16.30;;;2.20;99.90;;;;;;5065381;28;20823;-43
2021/04/15 06:27:22;;;;;;;23.03;17.63;;;2.40;99.90;;;;;;5060696;28;20895;-46
2021/04/15 06:29:57;;;;;;;23.23;16.93;;;2.70;1.00;;;;;;5071081;28;20469;-44
2021/04/15 06:32:32;;;;;;;20.90;16.80;;;3.10;99.90;;;;;;5077740;28;20546;-47
2021/04/15 06:35:00;;;;;;;20.83;15.63;;;3.40;1.00;;;;;;5062082;28;20472;-47
2021/04/15 06:37:36;;;;;;;18.80;16.07;;;3.60;99.90;;;;;;5077594;28;20826;-47
2021/04/15 06:40:28;;;;;;;26.93;16.70;;;3.90;1.00;;;;;;5067290;28;20598;-47
2021/04/15 06:43:19;;;;;;;21.20;15.27;;;4.00;1.00;;;;;;5057428;28;20527;-48
2021/04/15 06:45:59;;;;;;;23.63;14.97;;;4.10;99.90;;;;;;5065486;28;20889;-44
2021/04/15 06:48:50;;;;;;;19.07;14.30;;;4.20;99.90;;;;;;5069741;28;20781;-47
2021/04/15 06:51:43;;;;;;;22.20;16.73;;;4.50;82.60;;;;;;5054385;28;20517;-46
2021/04/15 06:54:34;;;;;;;16.40;14.50;;;4.80;1.00;;;;;;5056803;28;20469;-49
2021/04/15 06:57:25;;;;;;;20.23;15.80;;;4.90;1.00;;;;;;5054323;28;20473;-48
2021/04/15 07:00:15;;;;;;;21.67;14.40;;;5.10;1.00;;;;;;5076423;28;20493;-54
2021/04/15 07:02:57;;;;;;;18.90;14.40;;;5.40;1.00;;;;;;5067953;28;20462;-46
2021/04/15 07:05:29;;;;;;;16.97;14.43;;;5.60;1.00;;;;;;5068694;28;20473;-49
2021/04/15 07:08:02;;;;;;;16.03;13.47;;;5.90;1.00;;;;;;5068662;28;20465;-48
2021/04/15 07:10:45;;;;;;;15.97;12.87;;;6.20;1.00;;;;;;5064024;28;20466;-52
2021/04/15 07:13:40;;;;;;;13.27;12.07;;;6.30;1.00;;;;;;5060679;28;20469;-53
2021/04/15 07:16:39;;;;;;;14.80;13.27;;;6.60;1.00;;;;;;5067397;28;20587;-52
2021/04/15 07:19:41;;;;;;;15.50;12.30;;;6.70;1.00;;;;;;5057516;28;20459;-52
2021/04/15 07:22:44;;;;;;;17.10;13.30;;;7.10;1.00;;;;;;5063684;28;20458;-51
2021/04/15 07:25:21;;;;;;;14.37;11.30;;;7.20;1.00;;;;;;5053659;28;20477;-45
2021/04/15 07:28:10;;;;;;;12.00;10.90;;;7.60;1.00;;;;;;5073177;28;20469;-50
2021/04/15 07:31:11;;;;;;;14.60;12.13;;;7.90;1.00;;;;;;5056666;28;20508;-48
2021/04/15 07:34:14;;;;;;;13.30;11.13;;;7.80;1.00;;;;;;5056397;28;20489;-53
2021/04/15 07:37:10;;;;;;;12.40;11.13;;;7.60;1.00;;;;;;5029713;28;20491;-52
2021/04/15 07:40:17;;;;;;;9.40;8.47;;;8.00;1.00;;;;;;5049050;28;20906;-49
2021/04/15 07:42:56;;;;;;;8.40;7.20;;;8.30;1.00;;;;;;5002251;28;20468;-49
2021/04/15 07:45:29;;;;;;;9.90;8.80;;;8.40;1.00;;;;;;4995729;28;20460;-50
2021/04/15 07:48:43;;;;;;;13.13;10.23;;;7.60;1.00;;;;;;5031381;28;20473;-53
2021/04/15 07:51:38;;;;;;;12.20;7.47;;;7.70;1.00;;;;;;5063425;28;20497;-48
2021/04/15 07:54:32;;;;;;;9.03;6.70;;;7.90;1.00;;;;;;5074841;28;20440;-47
2021/04/15 07:57:27;;;;;;;6.90;6.27;;;7.40;1.00;;;;;;5061778;28;20778;-45
2021/04/15 08:00:17;;;;;;;7.47;5.53;;;7.50;1.00;;;;;;5033238;28;20543;-47
2021/04/15 08:03:03;;;;;;;7.37;5.53;;;8.10;99.90;;;;;;5061017;28;20457;-48
2021/04/15 08:05:41;;;;;;;9.13;6.93;;;8.80;99.90;;;;;;5069496;28;20595;-55
2021/04/15 08:08:46;;;;;;;8.10;6.53;;;9.50;99.90;;;;;;5064003;28;20458;-47
2021/04/15 08:11:52;;;;;;;7.50;6.20;;;9.00;99.90;;;;;;5059948;28;20496;-48
2021/04/15 08:15:07;;;;;;;7.93;6.80;;;9.20;99.90;;;;;;5027759;28;20516;-49
2021/04/15 08:18:02;;;;;;;8.23;7.00;;;9.30;99.90;;;;;;5074819;28;20464;-45
2021/04/15 08:20:53;;;;;;;7.73;6.60;;;9.50;99.90;;;;;;5068325;28;20519;-49
2021/04/15 08:24:04;;;;;;;7.03;6.23;;;9.70;99.90;;;;;;5061467;28;20787;-48
2021/04/15 08:27:11;;;;;;;8.47;6.50;;;9.90;99.90;;;;;;5067587;28;20479;-45
2021/04/15 08:30:01;;;;;;;6.50;5.90;;;9.90;99.90;;;;;;5069661;28;20559;-51
2021/04/15 08:32:34;;;;;;;7.73;6.93;;;9.30;99.90;;;;;;5067267;28;20504;-45
2021/04/15 08:35:18;;;;;;;9.97;6.80;;;9.50;99.90;;;;;;5060928;28;20520;-44
2021/04/15 08:37:59;;;;;;;9.67;7.23;;;10.20;99.90;;;;;;5067221;28;20946;-44
2021/04/15 08:40:34;;;;;;;8.63;5.57;;;10.10;99.90;;;;;;5073551;28;20855;-47
2021/04/15 08:43:17;;;;;;;8.67;5.60;;;9.30;99.90;;;;;;5065735;28;20526;-44
2021/04/15 08:45:51;;;;;;;7.60;6.80;;;9.30;99.90;;;;;;5066432;28;20472;-44
2021/04/15 08:48:37;;;;;;;6.67;5.60;;;9.40;99.90;;;;;;5062352;28;20461;-48
2021/04/15 08:51:33;;;;;;;6.90;6.20;;;10.90;99.90;;;;;;5070063;28;20489;-46
2021/04/15 08:54:10;;;;;;;6.80;5.97;;;10.60;99.90;;;;;;5059599;28;20462;-50
2021/04/15 08:56:46;;;;;;;9.07;6.80;;;9.40;99.90;;;;;;5059317;28;20526;-44
2021/04/15 08:59:32;;;;;;;7.37;6.50;;;9.10;99.90;;;;;;5064232;28;20469;-45
2021/04/15 09:02:09;;;;;;;7.33;6.73;;;9.20;99.90;;;;;;5065442;28;20458;-46
2021/04/15 09:04:52;;;;;;;6.23;5.70;;;10.30;99.90;;;;;;5069034;28;20469;-48
2021/04/15 09:07:26;;;;;;;7.90;6.27;;;10.60;99.90;;;;;;5071694;28;20473;-50
2021/04/15 09:10:03;;;;;;;10.67;6.27;;;10.60;99.90;;;;;;5067870;28;20462;-44
2021/04/15 09:12:54;;;;;;;8.27;7.47;;;10.50;99.90;;;;;;5059842;28;20497;-47
2021/04/15 09:15:29;;;;;;;7.67;6.50;;;10.50;99.90;;;;;;5063396;28;20473;-47
2021/04/15 09:18:05;;;;;;;6.57;5.97;;;10.60;99.90;;;;;;5058964;28;20474;-44
2021/04/15 09:20:41;;;;;;;5.53;4.43;;;10.70;99.90;;;;;;5061813;28;20473;-44
2021/04/15 09:23:34;;;;;;;5.03;4.47;;;10.00;99.90;;;;;;5063883;28;20842;-45
2021/04/15 09:26:15;;;;;;;5.60;4.97;;;10.10;99.90;;;;;;5059044;28;20462;-45
2021/04/15 09:28:55;;;;;;;6.10;5.50;;;10.60;99.90;;;;;;5065401;28;20768;-47
2021/04/15 09:31:30;;;;;;;7.67;5.97;;;10.70;99.90;;;;;;5074554;28;20941;-47
2021/04/15 09:34:46;;;;;;;5.60;4.40;;;10.70;99.90;;;;;;5067405;28;20776;-44
2021/04/15 09:37:34;;;;;;;5.57;5.07;;;9.90;99.90;;;;;;5065686;28;20784;-44
2021/04/15 09:40:07;;;;;;;7.27;5.40;;;9.80;99.90;;;;;;5070440;28;20465;-47
2021/04/15 09:42:52;;;;;;;6.53;5.90;;;9.60;99.90;;;;;;5061827;28;20458;-45
2021/04/15 09:45:39;;;;;;;7.30;5.70;;;9.10;99.90;;;;;;5065636;28;20489;-44
2021/04/15 09:48:33;;;;;;;5.40;4.87;;;8.90;99.90;;;;;;5061374;28;20441;-47
2021/04/15 09:51:10;;;;;;;8.70;4.93;;;8.70;99.90;;;;;;5061884;28;20559;-45
2021/04/15 09:53:59;;;;;;;5.90;4.80;;;8.80;99.90;;;;;;5065293;28;20772;-50
2021/04/15 09:56:57;;;;;;;4.60;4.20;;;9.90;99.90;;;;;;5074460;28;20465;-45
2021/04/15 09:59:28;;;;;;;5.40;4.20;;;11.40;99.90;;;;;;5071539;28;20778;-46
2021/04/15 10:02:01;;;;;;;6.27;4.47;;;12.30;99.90;;;;;;5072305;28;20457;-46
2021/04/15 10:04:37;;;;;;;8.63;5.27;;;12.40;99.90;;;;;;5067569;28;20461;-49
2021/04/15 10:07:09;;;;;;;5.90;5.03;;;12.70;99.90;;;;;;5078376;28;20461;-49
2021/04/15 10:09:55;;;;;;;5.10;4.70;;;13.40;99.90;;;;;;5069310;28;20457;-49
2021/04/15 10:12:39;;;;;;;4.47;4.07;;;13.60;99.90;;;;;;5073323;28;20497;-50
2021/04/15 10:15:36;;;;;;;5.20;4.63;;;12.90;99.90;;;;;;5070180;28;20894;-49
2021/04/15 10:18:25;;;;;;;6.30;4.13;;;11.70;99.90;;;;;;5069090;28;20807;-49
2021/04/15 10:21:27;;;;;;;6.10;4.17;;;12.50;99.90;;;;;;5059918;28;20474;-48
2021/04/15 10:24:09;;;;;;;4.03;3.63;;;13.10;99.90;;;;;;5038888;28;20475;-48
2021/04/15 10:27:04;;;;;;;4.90;4.50;;;13.50;99.90;;;;;;5058583;28;20479;-47
2021/04/15 10:30:06;;;;;;;7.60;4.70;;;13.30;99.90;;;;;;5059886;28;20470;-50
2021/04/15 10:33:03;;;;;;;5.00;4.50;;;14.00;99.90;;;;;;5037591;28;20937;-51
2021/04/15 10:35:56;;;;;;;5.97;4.50;;;13.50;99.90;;;;;;5058097;28;20565;-51
2021/04/15 10:38:41;;;;;;;5.00;4.43;;;12.50;99.90;;;;;;5057859;28;20925;-45
2021/04/15 10:41:38;;;;;;;6.50;5.53;;;11.60;99.90;;;;;;5065079;28;20734;-44
2021/04/15 10:44:40;;;;;;;10.40;4.50;;;10.70;99.90;;;;;;5064435;28;20506;-44
2021/04/15 10:47:21;;;;;;;6.10;5.00;;;10.20;99.90;;;;;;5033872;28;20873;-51
2021/04/15 10:49:59;;;;;;;5.03;4.60;;;10.10;99.90;;;;;;5057450;28;20485;-47
2021/04/15 10:52:50;;;;;;;5.77;5.13;;;9.60;99.90;;;;;;5064537;28;20570;-45
2021/04/15 10:55:24;;;;;;;7.40;5.10;;;9.90;99.90;;;;;;5058165;28;20477;-45
2021/04/15 10:58:03;;;;;;;4.77;4.37;;;10.10;99.90;;;;;;5071271;28;20466;-45
2021/04/15 11:00:32;;;;;;;5.03;4.53;;;9.70;99.90;;;;;;5058438;28;20767;-47
2021/04/15 11:03:13;;;;;;;3.93;3.50;;;9.60;99.90;;;;;;5057330;28;20473;-46
2021/04/15 11:05:42;;;;;;;5.10;4.60;;;9.90;99.90;;;;;;5069082;28;20480;-44
2021/04/15 11:08:16;;;;;;;5.23;4.80;;;10.00;99.90;;;;;;5061864;28;20454;-44
2021/04/15 11:10:43;;;;;;;4.70;4.40;;;9.80;99.90;;;;;;5070378;28;20814;-46
2021/04/15 11:13:27;;;;;;;4.73;4.33;;;9.80;99.90;;;;;;5074197;28;20789;-44
2021/04/15 11:16:00;;;;;;;5.67;5.00;;;9.90;99.90;;;;;;5061403;28;20826;-44
2021/04/15 11:18:30;;;;;;;5.97;5.10;;;9.70;99.90;;;;;;5064083;28;20485;-47
2021/04/15 11:21:14;;;;;;;4.90;4.40;;;9.60;99.90;;;;;;5058547;28;20466;-44
2021/04/15 11:23:42;;;;;;;7.40;6.40;;;9.70;99.90;;;;;;5057251;28;20535;-45
2021/04/15 11:26:28;;;;;;;5.40;4.93;;;9.90;99.90;;;;;;5056061;28;20462;-44
2021/04/15 11:28:57;;;;;;;7.60;5.20;;;10.60;99.90;;;;;;5057218;28;20465;-44
2021/04/15 11:31:37;;;;;;;5.73;5.33;;;11.50;99.90;;;;;;5065879;28;20489;-44
2021/04/15 11:34:10;;;;;;;8.60;5.57;;;11.20;99.90;;;;;;5076720;28;20508;-50
2021/04/15 11:36:56;;;;;;;6.90;5.80;;;11.00;99.90;;;;;;5057002;28;20465;-48
2021/04/15 11:39:27;;;;;;;6.83;5.30;;;11.20;99.90;;;;;;5061752;28;20516;-44
2021/04/15 11:41:58;;;;;;;7.40;5.50;;;11.20;99.90;;;;;;5059282;28;20473;-48
2021/04/15 11:44:31;;;;;;;7.70;5.40;;;11.30;99.90;;;;;;5074779;28;20468;-47
2021/04/15 11:47:01;;;;;;;7.47;6.30;;;11.60;99.90;;;;;;5062796;28;20472;-46
2021/04/15 11:49:32;;;;;;;7.13;5.63;;;12.50;99.90;;;;;;5067865;28;20474;-44
2021/04/15 11:52:16;;;;;;;6.13;5.50;;;13.00;99.90;;;;;;5063288;28;20474;-44
2021/04/15 11:54:45;;;;;;;7.00;6.30;;;13.80;99.90;;;;;;5066551;28;20481;-47
2021/04/15 11:57:29;;;;;;;5.93;5.20;;;14.40;99.90;;;;;;5076269;28;20817;-47
2021/04/15 12:00:24;;;;;;;5.10;4.70;;;13.90;99.90;;;;;;5059346;28;20958;-46
2021/04/15 12:03:11;;;;;;;6.53;6.03;;;12.20;99.90;;;;;;5056348;28;20457;-47
2021/04/15 12:05:40;;;;;;;6.37;5.77;;;12.60;99.90;;;;;;5067237;28;20894;-44
2021/04/15 12:08:13;;;;;;;7.03;6.53;;;12.40;99.90;;;;;;5067006;28;20488;-47
2021/04/15 12:10:42;;;;;;;6.60;6.00;;;12.10;99.90;;;;;;5069801;28;20897;-44
2021/04/15 12:13:16;;;;;;;6.60;6.00;;;11.50;99.90;;;;;;5062577;28;20929;-44
2021/04/15 12:15:48;;;;;;;7.00;6.30;;;11.00;99.90;;;;;;5056807;28;20528;-45
2021/04/15 12:18:23;;;;;;;6.43;5.83;;;10.20;99.90;;;;;;5074557;28;20473;-43
2021/04/15 12:21:00;;;;;;;8.20;6.17;;;10.50;99.90;;;;;;5057285;28;20503;-46
2021/04/15 12:23:39;;;;;;;8.40;7.60;;;10.30;99.90;;;;;;5067798;28;20469;-44
2021/04/15 12:26:10;;;;;;;7.00;6.37;;;9.70;99.90;;;;;;5071983;28;20457;-46
2021/04/15 12:28:43;;;;;;;9.03;7.30;;;9.50;99.90;;;;;;5075629;28;20469;-50
2021/04/15 12:31:27;;;;;;;8.80;7.93;;;9.90;99.90;;;;;;5067810;28;20486;-43
2021/04/15 12:34:10;;;;;;;9.97;8.97;;;10.30;99.90;;;;;;5056226;28;20462;-46
2021/04/15 12:36:45;;;;;;;9.63;8.63;;;10.40;99.90;;;;;;5059016;28;20503;-48
2021/04/15 12:39:18;;;;;;;9.63;8.63;;;9.80;99.90;;;;;;5062110;28;20501;-47
2021/04/15 12:41:45;;;;;;;8.63;7.90;;;9.90;99.90;;;;;;5066105;28;20462;-47
2021/04/15 12:44:17;;;;;;;7.67;6.97;;;9.80;99.90;;;;;;5060710;28;20471;-44
2021/04/15 12:46:47;;;;;;;6.90;6.20;;;10.10;99.90;;;;;;5060598;28;20460;-47
2021/04/15 12:49:20;;;;;;;6.37;5.70;;;11.10;99.90;;;;;;5066317;28;20465;-44
2021/04/15 12:51:49;;;;;;;6.97;6.27;;;12.20;99.90;;;;;;5071727;28;20496;-49
2021/04/15 12:54:20;;;;;;;7.00;6.30;;;13.30;99.90;;;;;;5067892;28;20640;-43
2021/04/15 12:56:50;;;;;;;6.87;6.33;;;13.80;99.90;;;;;;5060372;28;20465;-52
2021/04/15 12:59:24;;;;;;;7.10;6.20;;;14.10;99.90;;;;;;5068798;28;20533;-47
2021/04/15 13:01:51;;;;;;;8.20;7.50;;;13.80;99.90;;;;;;5072473;28;20460;-47
2021/04/15 13:04:22;;;;;;;6.50;5.90;;;12.90;99.90;;;;;;5068758;28;20499;-50
2021/04/15 13:07:11;;;;;;;7.57;6.97;;;12.30;99.90;;;;;;5071124;28;20923;-45
2021/04/15 13:09:42;;;;;;;11.07;8.43;;;11.70;99.90;;;;;;5065934;28;20914;-46
2021/04/15 13:12:33;;;;;;;10.23;8.50;;;11.20;99.90;;;;;;5065180;28;20471;-45
2021/04/15 13:15:02;;;;;;;10.87;8.47;;;10.30;99.90;;;;;;5067590;28;20719;-46
2021/04/15 13:17:48;;;;;;;9.03;7.63;;;9.90;99.90;;;;;;5066952;28;20522;-44
2021/04/15 13:20:40;;;;;;;8.03;7.20;;;10.00;99.90;;;;;;5079037;28;20762;-43
2021/04/15 13:23:36;;;;;;;8.03;7.03;;;11.20;99.90;;;;;;5064140;28;20871;-49
2021/04/15 13:26:37;;;;;;;8.07;7.37;;;11.80;99.90;;;;;;5016522;28;20466;-48
2021/04/15 13:29:25;;;;;;;8.23;6.80;;;12.50;99.90;;;;;;5065406;28;20526;-44
2021/04/15 13:32:00;;;;;;;6.17;5.67;;;12.50;99.90;;;;;;5062239;28;20927;-44
2021/04/15 13:34:29;;;;;;;7.60;6.90;;;12.30;99.90;;;;;;5075162;28;20519;-49